createdAt,value
2023-04-18T00:00:08.870Z,12.68
2023-04-18T00:01:08.852Z,12.69
2023-04-18T00:02:08.918Z,12.69
2023-04-18T00:03:09.003Z,12.69
2023-04-18T00:04:08.998Z,12.68
2023-04-18T00:05:08.860Z,12.66
2023-04-18T00:06:08.789Z,12.63
2023-04-18T00:07:08.814Z,12.65
2023-04-18T00:08:08.767Z,12.65
2023-04-18T00:09:08.795Z,12.64
2023-04-18T00:10:08.749Z,12.62
2023-04-18T00:11:08.743Z,12.60
2023-04-18T00:12:08.726Z,12.58
2023-04-18T00:13:08.705Z,12.55
2023-04-18T00:14:08.729Z,12.55
2023-04-18T00:15:08.723Z,12.54
2023-04-18T00:16:08.726Z,12.52
2023-04-18T00:17:08.817Z,12.50
2023-04-18T00:18:08.715Z,12.48
2023-04-18T00:19:08.636Z,12.49
2023-04-18T00:20:08.612Z,12.54
2023-04-18T00:21:08.765Z,12.58
2023-04-18T00:22:08.596Z,12.62
2023-04-18T00:23:08.606Z,12.65
2023-04-18T00:24:08.547Z,12.70
2023-04-18T00:25:08.536Z,12.78
2023-04-18T00:26:08.558Z,12.83
2023-04-18T00:27:08.507Z,12.84
2023-04-18T00:28:08.507Z,12.83
2023-04-18T00:29:08.516Z,12.82
2023-04-18T00:30:08.477Z,12.82
2023-04-18T00:31:08.529Z,12.81
2023-04-18T00:32:08.490Z,12.80
2023-04-18T00:33:08.439Z,12.78
2023-04-18T00:34:08.420Z,12.81
2023-04-18T00:35:08.446Z,12.81
2023-04-18T00:36:08.390Z,12.79
2023-04-18T00:37:08.383Z,12.77
2023-04-18T00:38:08.371Z,12.72
2023-04-18T00:39:08.401Z,12.68
2023-04-18T00:40:08.371Z,12.65
2023-04-18T00:41:08.346Z,12.65
2023-04-18T00:42:08.306Z,12.62
2023-04-18T00:43:08.321Z,12.61
2023-04-18T00:44:08.321Z,12.64
2023-04-18T00:45:08.294Z,12.65
2023-04-18T00:46:08.283Z,12.64
2023-04-18T00:47:08.266Z,12.63
2023-04-18T00:48:08.274Z,12.61
2023-04-18T00:49:08.219Z,12.60
2023-04-18T00:50:08.249Z,12.56
2023-04-18T00:51:08.189Z,12.52
2023-04-18T00:52:08.165Z,12.51
2023-04-18T00:53:08.207Z,12.51
2023-04-18T00:54:08.180Z,12.49
2023-04-18T00:55:08.150Z,12.50
2023-04-18T00:56:08.155Z,12.49
2023-04-18T00:57:08.136Z,12.54
2023-04-18T00:58:08.113Z,12.58
2023-04-18T00:59:08.106Z,12.60
2023-04-18T01:00:08.072Z,12.61
2023-04-18T01:01:08.112Z,12.60
2023-04-18T01:02:08.155Z,12.58
2023-04-18T01:03:08.219Z,12.56
2023-04-18T01:04:08.201Z,12.55
2023-04-18T01:05:08.066Z,12.54
2023-04-18T01:06:08.000Z,12.56
2023-04-18T01:07:07.972Z,12.61
2023-04-18T01:08:08.023Z,12.64
2023-04-18T01:09:07.969Z,12.68
2023-04-18T01:10:07.993Z,12.69
2023-04-18T01:11:07.947Z,12.69
2023-04-18T01:12:07.905Z,12.69
2023-04-18T01:13:07.891Z,12.70
2023-04-18T01:14:07.928Z,12.71
2023-04-18T01:15:07.881Z,12.75
2023-04-18T01:16:07.914Z,12.77
2023-04-18T01:17:07.872Z,12.79
2023-04-18T01:18:07.853Z,12.80
2023-04-18T01:19:07.830Z,12.76
2023-04-18T01:20:07.854Z,12.72
2023-04-18T01:21:07.788Z,12.68
2023-04-18T01:22:07.797Z,12.66
2023-04-18T01:23:07.829Z,12.63
2023-04-18T01:24:07.748Z,12.61
2023-04-18T01:25:07.780Z,12.60
2023-04-18T01:26:07.732Z,12.61
2023-04-18T01:27:07.713Z,12.58
2023-04-18T01:28:07.712Z,12.56
2023-04-18T01:29:07.747Z,12.54
2023-04-18T01:30:07.729Z,12.52
2023-04-18T01:31:07.679Z,12.52
2023-04-18T01:32:07.657Z,12.52
2023-04-18T01:33:07.641Z,12.50
2023-04-18T01:34:07.675Z,12.47
2023-04-18T01:35:07.619Z,12.45
2023-04-18T01:36:07.615Z,12.43
2023-04-18T01:37:07.606Z,12.46
2023-04-18T01:38:07.590Z,12.51
2023-04-18T01:39:07.557Z,12.54
2023-04-18T01:40:07.554Z,12.54
2023-04-18T01:41:07.550Z,12.52
2023-04-18T01:42:07.530Z,12.51
2023-04-18T01:43:07.499Z,12.50
2023-04-18T01:44:07.495Z,12.48
2023-04-18T01:45:07.483Z,12.48
2023-04-18T01:46:07.475Z,12.45
2023-04-18T01:47:07.482Z,12.40
2023-04-18T01:48:07.432Z,12.36
2023-04-18T01:49:07.417Z,12.33
2023-04-18T01:50:07.425Z,12.33
2023-04-18T01:51:07.405Z,12.31
2023-04-18T01:52:07.419Z,12.27
2023-04-18T01:53:07.398Z,12.25
2023-04-18T01:54:07.379Z,12.22
2023-04-18T01:55:07.361Z,12.20
2023-04-18T01:56:07.380Z,12.19
2023-04-18T01:57:07.322Z,12.18
2023-04-18T01:58:07.302Z,12.19
2023-04-18T01:59:07.354Z,12.24
2023-04-18T02:00:07.474Z,12.25
2023-04-18T02:01:07.309Z,12.24
2023-04-18T02:02:07.287Z,12.23
2023-04-18T02:03:07.398Z,12.21
2023-04-18T02:04:07.324Z,12.22
2023-04-18T02:05:07.252Z,12.21
2023-04-18T02:06:07.184Z,12.17
2023-04-18T02:07:07.176Z,12.14
2023-04-18T02:08:07.172Z,12.14
2023-04-18T02:09:07.194Z,12.16
2023-04-18T02:10:07.235Z,12.19
2023-04-18T02:11:07.235Z,12.20
2023-04-18T02:12:07.125Z,12.19
2023-04-18T02:13:07.106Z,12.17
2023-04-18T02:14:07.099Z,12.14
2023-04-18T02:15:07.114Z,12.09
2023-04-18T02:16:07.111Z,12.05
2023-04-18T02:17:07.093Z,12.07
2023-04-18T02:18:07.170Z,12.13
2023-04-18T02:19:07.031Z,12.19
2023-04-18T02:20:07.038Z,12.22
2023-04-18T02:21:07.012Z,12.24
2023-04-18T02:22:06.972Z,12.28
2023-04-18T02:23:07.016Z,12.29
2023-04-18T02:24:06.955Z,12.27
2023-04-18T02:25:06.972Z,12.27
2023-04-18T02:26:06.941Z,12.25
2023-04-18T02:27:06.943Z,12.22
2023-04-18T02:28:06.898Z,12.18
2023-04-18T02:29:06.908Z,12.16
2023-04-18T02:30:06.905Z,12.15
2023-04-18T02:31:06.860Z,12.14
2023-04-18T02:32:07.319Z,12.13
2023-04-18T02:33:06.935Z,12.12
2023-04-18T02:34:06.825Z,12.13
2023-04-18T02:35:06.866Z,12.13
2023-04-18T02:36:06.817Z,12.13
2023-04-18T02:37:06.790Z,12.13
2023-04-18T02:38:06.804Z,12.13
2023-04-18T02:39:06.793Z,12.13
2023-04-18T02:40:06.750Z,12.14
2023-04-18T02:41:06.761Z,12.14
2023-04-18T02:42:06.726Z,12.14
2023-04-18T02:43:06.722Z,12.14
2023-04-18T02:44:06.709Z,12.16
2023-04-18T02:45:06.719Z,12.18
2023-04-18T02:46:06.741Z,12.18
2023-04-18T02:47:06.684Z,12.18
2023-04-18T02:48:06.685Z,12.18
2023-04-18T02:49:06.658Z,12.18
2023-04-18T02:50:06.625Z,12.20
2023-04-18T02:51:06.617Z,12.20
2023-04-18T02:52:06.612Z,12.20
2023-04-18T02:53:06.607Z,12.16
2023-04-18T02:54:06.591Z,12.12
2023-04-18T02:55:06.546Z,12.10
2023-04-18T02:56:06.533Z,12.07
2023-04-18T02:57:06.512Z,12.06
2023-04-18T02:58:06.517Z,12.05
2023-04-18T02:59:06.512Z,12.03
2023-04-18T03:00:06.482Z,12.02
2023-04-18T03:01:06.537Z,12.02
2023-04-18T03:02:06.478Z,12.00
2023-04-18T03:03:06.507Z,11.98
2023-04-18T03:04:06.448Z,11.96
2023-04-18T03:05:06.515Z,11.93
2023-04-18T03:06:06.400Z,11.88
2023-04-18T03:07:06.396Z,11.84
2023-04-18T03:08:06.388Z,11.80
2023-04-18T03:09:06.402Z,11.76
2023-04-18T03:10:06.353Z,11.75
2023-04-18T03:11:06.369Z,11.76
2023-04-18T03:12:06.328Z,11.74
2023-04-18T03:13:06.309Z,11.72
2023-04-18T03:14:06.301Z,11.72
2023-04-18T03:15:06.325Z,11.74
2023-04-18T03:16:06.411Z,11.76
2023-04-18T03:17:06.297Z,11.76
2023-04-18T03:18:06.338Z,11.81
2023-04-18T03:19:06.279Z,11.87
2023-04-18T03:20:06.240Z,11.92
2023-04-18T03:21:06.299Z,11.92
2023-04-18T03:22:06.202Z,11.92
2023-04-18T03:23:06.295Z,11.92
2023-04-18T03:24:06.152Z,11.90
2023-04-18T03:25:06.212Z,11.89
2023-04-18T03:26:06.185Z,11.89
2023-04-18T03:27:06.133Z,11.88
2023-04-18T03:28:06.111Z,11.86
2023-04-18T03:29:06.104Z,11.83
2023-04-18T03:30:06.081Z,11.84
2023-04-18T03:31:06.069Z,11.84
2023-04-18T03:32:06.048Z,11.84
2023-04-18T03:33:06.057Z,11.82
2023-04-18T03:34:06.090Z,11.79
2023-04-18T03:35:06.040Z,11.75
2023-04-18T03:36:05.999Z,11.73
2023-04-18T03:37:05.990Z,11.73
2023-04-18T03:38:05.974Z,11.76
2023-04-18T03:39:05.961Z,11.81
2023-04-18T03:40:06.010Z,11.83
2023-04-18T03:41:05.953Z,11.81
2023-04-18T03:42:05.952Z,11.79
2023-04-18T03:43:05.921Z,11.79
2023-04-18T03:44:05.959Z,11.78
2023-04-18T03:45:05.883Z,11.76
2023-04-18T03:46:05.985Z,11.74
2023-04-18T03:47:05.909Z,11.75
2023-04-18T03:48:05.846Z,11.77
2023-04-18T03:49:05.883Z,11.78
2023-04-18T03:50:05.819Z,11.77
2023-04-18T03:51:05.817Z,11.75
2023-04-18T03:52:05.839Z,11.73
2023-04-18T03:53:05.800Z,11.72
2023-04-18T03:54:05.785Z,11.71
2023-04-18T03:55:05.750Z,11.76
2023-04-18T03:56:05.744Z,11.79
2023-04-18T03:57:05.721Z,11.81
2023-04-18T03:58:05.715Z,11.80
2023-04-18T03:59:05.710Z,11.83
2023-04-18T04:00:05.686Z,11.83
2023-04-18T04:01:05.711Z,11.83
2023-04-18T04:02:05.732Z,11.84
2023-04-18T04:03:05.814Z,11.86
2023-04-18T04:04:05.768Z,11.86
2023-04-18T04:05:05.764Z,11.87
2023-04-18T04:06:05.662Z,11.86
2023-04-18T04:07:05.618Z,11.83
2023-04-18T04:08:05.589Z,11.82
2023-04-18T04:09:05.584Z,11.79
2023-04-18T04:10:05.567Z,11.76
2023-04-18T04:11:05.573Z,11.74
2023-04-18T04:12:05.555Z,11.73
2023-04-18T04:13:05.523Z,11.73
2023-04-18T04:14:05.516Z,11.71
2023-04-18T04:15:05.500Z,11.70
2023-04-18T04:16:05.516Z,11.71
2023-04-18T04:17:05.520Z,11.71
2023-04-18T04:18:05.486Z,11.73
2023-04-18T04:19:05.480Z,11.74
2023-04-18T04:20:05.428Z,11.73
2023-04-18T04:21:05.428Z,11.74
2023-04-18T04:22:05.439Z,11.77
2023-04-18T04:23:05.439Z,11.79
2023-04-18T04:24:05.378Z,11.82
2023-04-18T04:25:05.379Z,11.84
2023-04-18T04:26:05.370Z,11.85
2023-04-18T04:27:05.333Z,11.88
2023-04-18T04:28:05.331Z,11.93
2023-04-18T04:29:05.393Z,11.95
2023-04-18T04:30:05.301Z,11.98
2023-04-18T04:31:05.321Z,11.96
2023-04-18T04:32:05.404Z,11.95
2023-04-18T04:33:05.277Z,11.95
2023-04-18T04:34:05.248Z,11.94
2023-04-18T04:35:05.261Z,11.93
2023-04-18T04:36:05.217Z,11.95
2023-04-18T04:37:05.220Z,11.95
2023-04-18T04:38:05.184Z,11.96
2023-04-18T04:39:05.179Z,11.98
2023-04-18T04:40:05.158Z,11.99
2023-04-18T04:41:05.166Z,12.01
2023-04-18T04:42:05.141Z,12.01
2023-04-18T04:43:05.121Z,12.07
2023-04-18T04:44:05.120Z,12.11
2023-04-18T04:45:05.155Z,12.14
2023-04-18T04:46:05.133Z,12.17
2023-04-18T04:47:05.122Z,12.22
2023-04-18T04:48:05.113Z,12.22
2023-04-18T04:49:05.027Z,12.22
2023-04-18T04:50:05.017Z,12.20
2023-04-18T04:51:05.048Z,12.14
2023-04-18T04:52:05.005Z,12.09
2023-04-18T04:53:05.138Z,12.03
2023-04-18T04:54:04.967Z,12.00
2023-04-18T04:55:04.987Z,11.98
2023-04-18T04:56:04.960Z,11.96
2023-04-18T04:57:04.953Z,11.97
2023-04-18T04:58:05.041Z,12.01
2023-04-18T04:59:04.985Z,12.06
2023-04-18T05:00:04.920Z,12.08
2023-04-18T05:01:04.914Z,12.08
2023-04-18T05:02:04.925Z,12.07
2023-04-18T05:03:05.018Z,12.04
2023-04-18T05:04:04.916Z,12.02
2023-04-18T05:05:04.893Z,12.00
2023-04-18T05:06:04.818Z,12.00
2023-04-18T05:07:04.821Z,12.00
2023-04-18T05:08:04.873Z,12.00
2023-04-18T05:09:04.806Z,12.00
2023-04-18T05:10:04.760Z,12.01
2023-04-18T05:11:04.798Z,12.02
2023-04-18T05:12:04.752Z,12.07
2023-04-18T05:13:04.705Z,12.11
2023-04-18T05:14:04.719Z,12.12
2023-04-18T05:15:04.898Z,12.13
2023-04-18T05:16:04.757Z,12.12
2023-04-18T05:17:04.760Z,12.14
2023-04-18T05:18:04.686Z,12.15
2023-04-18T05:19:04.676Z,12.14
2023-04-18T05:20:04.639Z,12.16
2023-04-18T05:21:04.626Z,12.24
2023-04-18T05:22:04.624Z,12.33
2023-04-18T05:23:04.625Z,12.39
2023-04-18T05:24:04.577Z,12.45
2023-04-18T05:25:04.578Z,12.48
2023-04-18T05:26:04.581Z,12.46
2023-04-18T05:27:04.592Z,12.42
2023-04-18T05:28:04.536Z,12.41
2023-04-18T05:29:04.556Z,12.42
2023-04-18T05:30:04.501Z,12.44
2023-04-18T05:31:04.530Z,12.47
2023-04-18T05:32:04.480Z,12.47
2023-04-18T05:33:04.513Z,12.42
2023-04-18T05:34:04.444Z,12.36
2023-04-18T05:35:04.477Z,12.30
2023-04-18T05:36:04.423Z,12.26
2023-04-18T05:37:04.404Z,12.21
2023-04-18T05:38:04.419Z,12.16
2023-04-18T05:39:04.400Z,12.14
2023-04-18T05:40:04.369Z,12.13
2023-04-18T05:41:04.369Z,12.09
2023-04-18T05:42:04.364Z,12.07
2023-04-18T05:43:04.316Z,12.05
2023-04-18T05:44:05.649Z,12.02
2023-04-18T05:45:04.309Z,12.01
2023-04-18T05:46:04.316Z,11.99
2023-04-18T05:47:04.306Z,11.99
2023-04-18T05:48:04.335Z,11.98
2023-04-18T05:49:04.268Z,12.04
2023-04-18T05:50:04.226Z,12.10
2023-04-18T05:51:04.251Z,12.14
2023-04-18T05:52:04.203Z,12.16
2023-04-18T05:53:04.259Z,12.19
2023-04-18T05:54:04.197Z,12.21
2023-04-18T05:55:04.172Z,12.23
2023-04-18T05:56:04.157Z,12.23
2023-04-18T05:57:04.794Z,12.25
2023-04-18T05:58:04.360Z,12.24
2023-04-18T05:59:04.312Z,12.30
2023-04-18T06:00:04.115Z,12.43
2023-04-18T06:01:04.119Z,12.68
2023-04-18T06:02:04.099Z,13.06
2023-04-18T06:03:04.202Z,13.51
2023-04-18T06:04:04.252Z,13.89
2023-04-18T06:05:04.383Z,14.22
2023-04-18T06:06:04.013Z,14.46
2023-04-18T06:07:04.014Z,14.55
2023-04-18T06:08:04.024Z,14.55
2023-04-18T06:09:03.988Z,14.38
2023-04-18T06:10:03.962Z,14.26
2023-04-18T06:11:04.979Z,14.09
2023-04-18T06:12:04.778Z,13.84
2023-04-18T06:13:04.029Z,13.63
2023-04-18T06:14:05.411Z,13.43
2023-04-18T06:15:03.909Z,13.27
2023-04-18T06:16:03.942Z,13.10
2023-04-18T06:17:03.957Z,12.96
2023-04-18T06:18:03.902Z,12.87
2023-04-18T06:19:03.855Z,12.79
2023-04-18T06:20:03.854Z,12.71
2023-04-18T06:21:03.831Z,12.64
2023-04-18T06:22:03.813Z,12.60
2023-04-18T06:23:03.822Z,12.57
2023-04-18T06:24:03.829Z,12.52
2023-04-18T06:25:03.773Z,12.49
2023-04-18T06:26:03.774Z,12.45
2023-04-18T06:27:03.834Z,12.45
2023-04-18T06:28:03.730Z,12.45
2023-04-18T06:29:03.750Z,12.47
2023-04-18T06:30:03.706Z,12.46
2023-04-18T06:31:03.687Z,12.51
2023-04-18T06:32:03.757Z,12.56
2023-04-18T06:33:03.732Z,12.58
2023-04-18T06:34:03.645Z,12.58
2023-04-18T06:35:03.703Z,12.59
2023-04-18T06:36:03.632Z,12.61
2023-04-18T06:37:03.685Z,12.58
2023-04-18T06:38:03.592Z,12.54
2023-04-18T06:39:03.579Z,12.49
2023-04-18T06:40:03.618Z,12.46
2023-04-18T06:41:03.646Z,12.43
2023-04-18T06:42:03.591Z,12.42
2023-04-18T06:43:03.565Z,12.42
2023-04-18T06:44:04.629Z,12.43
2023-04-18T06:45:03.495Z,12.45
2023-04-18T06:46:03.531Z,12.46
2023-04-18T06:47:03.492Z,12.45
2023-04-18T06:48:03.710Z,12.41
2023-04-18T06:49:03.454Z,12.40
2023-04-18T06:50:03.473Z,12.40
2023-04-18T06:51:03.440Z,12.38
2023-04-18T06:52:03.446Z,12.36
2023-04-18T06:53:03.409Z,12.34
2023-04-18T06:54:03.415Z,12.34
2023-04-18T06:55:03.374Z,12.37
2023-04-18T06:56:03.399Z,12.37
2023-04-18T06:57:03.376Z,12.39
2023-04-18T06:58:03.360Z,12.42
2023-04-18T06:59:03.336Z,12.43
2023-04-18T07:00:03.323Z,12.45
2023-04-18T07:01:03.345Z,12.44
2023-04-18T07:02:03.351Z,12.44
2023-04-18T07:03:03.386Z,12.45
2023-04-18T07:04:03.315Z,12.45
2023-04-18T07:05:03.265Z,12.44
2023-04-18T07:06:03.229Z,12.46
2023-04-18T07:07:03.224Z,12.49
2023-04-18T07:08:03.213Z,12.52
2023-04-18T07:09:03.186Z,12.55
2023-04-18T07:10:03.189Z,12.56
2023-04-18T07:11:03.200Z,12.56
2023-04-18T07:12:03.151Z,12.57
2023-04-18T07:13:07.931Z,12.57
2023-04-18T07:14:03.157Z,12.61
2023-04-18T07:15:03.128Z,12.62
2023-04-18T07:16:03.097Z,12.62
2023-04-18T07:17:03.146Z,12.61
2023-04-18T07:18:03.144Z,12.61
2023-04-18T07:19:03.053Z,12.61
2023-04-18T07:20:03.051Z,12.65
2023-04-18T07:21:03.038Z,12.69
2023-04-18T07:22:03.013Z,12.69
2023-04-18T07:23:03.017Z,12.70
2023-04-18T07:24:03.046Z,12.69
2023-04-18T07:25:03.146Z,12.70
2023-04-18T07:26:03.201Z,12.71
2023-04-18T07:27:02.969Z,12.73
2023-04-18T07:28:02.929Z,12.76
2023-04-18T07:29:02.948Z,12.77
2023-04-18T07:30:02.908Z,12.74
2023-04-18T07:31:02.919Z,12.73
2023-04-18T07:32:02.891Z,12.71
2023-04-18T07:33:02.924Z,12.69
2023-04-18T07:34:02.878Z,12.69
2023-04-18T07:35:02.864Z,12.70
2023-04-18T07:36:02.839Z,12.73
2023-04-18T07:37:02.842Z,12.75
2023-04-18T07:38:02.794Z,12.75
2023-04-18T07:39:02.802Z,12.74
2023-04-18T07:40:02.789Z,12.73
2023-04-18T07:41:02.805Z,12.72
2023-04-18T07:42:02.753Z,12.73
2023-04-18T07:43:02.787Z,12.76
2023-04-18T07:44:02.763Z,12.78
2023-04-18T07:45:02.722Z,12.80
2023-04-18T07:46:02.740Z,12.79
2023-04-18T07:47:02.703Z,12.83
2023-04-18T07:48:02.693Z,12.88
2023-04-18T07:49:02.655Z,12.93
2023-04-18T07:50:02.661Z,12.96
2023-04-18T07:51:02.625Z,12.98
2023-04-18T07:52:02.640Z,12.98
2023-04-18T07:53:02.630Z,12.95
2023-04-18T07:54:02.609Z,12.93
2023-04-18T07:55:02.572Z,12.89
2023-04-18T07:56:02.589Z,12.87
2023-04-18T07:57:02.541Z,12.85
2023-04-18T07:58:02.540Z,12.84
2023-04-18T07:59:02.570Z,12.82
2023-04-18T08:00:02.508Z,12.80
2023-04-18T08:01:02.514Z,12.80
2023-04-18T08:02:02.557Z,12.78
2023-04-18T08:03:02.652Z,12.77
2023-04-18T08:04:02.684Z,12.78
2023-04-18T08:05:02.634Z,12.80
2023-04-18T08:06:02.473Z,12.82
2023-04-18T08:07:02.465Z,12.82
2023-04-18T08:08:02.446Z,12.82
2023-04-18T08:09:02.429Z,12.82
2023-04-18T08:10:02.441Z,12.85
2023-04-18T08:11:02.392Z,12.89
2023-04-18T08:12:02.515Z,12.94
2023-04-18T08:13:02.414Z,12.97
2023-04-18T08:14:02.349Z,12.96
2023-04-18T08:15:02.389Z,12.95
2023-04-18T08:16:02.364Z,12.94
2023-04-18T08:17:02.413Z,12.93
2023-04-18T08:18:02.367Z,12.90
2023-04-18T08:19:02.304Z,12.90
2023-04-18T08:20:02.300Z,12.92
2023-04-18T08:21:02.243Z,12.94
2023-04-18T08:22:02.284Z,12.96
2023-04-18T08:23:08.521Z,12.99
2023-04-18T08:24:03.217Z,13.00
2023-04-18T08:25:05.473Z,12.97
2023-04-18T08:26:02.198Z,12.98
2023-04-18T08:27:02.225Z,12.96
2023-04-18T08:28:02.154Z,12.94
2023-04-18T08:29:02.210Z,12.92
2023-04-18T08:30:02.158Z,12.91
2023-04-18T08:31:02.139Z,12.88
2023-04-18T08:32:02.280Z,12.89
2023-04-18T08:33:02.205Z,12.91
2023-04-18T08:34:04.435Z,12.94
2023-04-18T08:35:02.106Z,12.97
2023-04-18T08:36:02.228Z,13.01
2023-04-18T08:37:02.066Z,13.07
2023-04-18T08:38:02.281Z,13.16
2023-04-18T08:39:01.998Z,13.27
2023-04-18T08:40:02.003Z,13.34
2023-04-18T08:41:02.013Z,13.36
2023-04-18T08:42:01.980Z,13.39
2023-04-18T08:43:01.969Z,13.41
2023-04-18T08:44:01.978Z,13.42
2023-04-18T08:45:01.951Z,13.47
2023-04-18T08:46:02.081Z,13.50
2023-04-18T08:47:02.037Z,13.50
2023-04-18T08:48:02.013Z,13.47
2023-04-18T08:49:01.893Z,13.43
2023-04-18T08:50:01.869Z,13.40
2023-04-18T08:51:01.935Z,13.38
2023-04-18T08:52:01.854Z,13.37
2023-04-18T08:53:01.897Z,13.35
2023-04-18T08:54:01.844Z,13.35
2023-04-18T08:55:01.877Z,13.37
2023-04-18T08:56:01.822Z,13.41
2023-04-18T08:57:01.800Z,13.44
2023-04-18T08:58:01.798Z,13.46
2023-04-18T08:59:01.780Z,13.47
2023-04-18T09:00:01.821Z,13.49
2023-04-18T09:01:01.765Z,13.50
2023-04-18T09:02:02.057Z,13.49
2023-04-18T09:03:01.806Z,13.51
2023-04-18T09:04:01.811Z,13.51
2023-04-18T09:05:01.719Z,13.50
2023-04-18T09:06:01.727Z,13.51
2023-04-18T09:07:01.637Z,13.51
2023-04-18T09:08:01.620Z,13.50
2023-04-18T09:09:01.633Z,13.50
2023-04-18T09:10:01.637Z,13.49
2023-04-18T09:11:01.696Z,13.52
2023-04-18T09:12:01.594Z,13.56
2023-04-18T09:13:01.595Z,13.62
2023-04-18T09:14:01.558Z,13.65
2023-04-18T09:15:01.529Z,13.70
2023-04-18T09:16:01.486Z,13.71
2023-04-18T09:17:01.769Z,13.67
2023-04-18T09:18:01.559Z,13.63
2023-04-18T09:19:01.486Z,13.60
2023-04-18T09:20:01.606Z,13.58
2023-04-18T09:21:01.510Z,13.56
2023-04-18T09:22:01.459Z,13.55
2023-04-18T09:23:01.454Z,13.53
2023-04-18T09:24:01.435Z,13.50
2023-04-18T09:25:01.409Z,13.47
2023-04-18T09:26:01.486Z,13.44
2023-04-18T09:27:01.391Z,13.43
2023-04-18T09:28:01.475Z,13.43
2023-04-18T09:29:01.481Z,13.43
2023-04-18T09:30:01.332Z,13.42
2023-04-18T09:31:01.372Z,13.45
2023-04-18T09:32:01.532Z,13.46
2023-04-18T09:33:01.385Z,13.50
2023-04-18T09:34:01.334Z,13.52
2023-04-18T09:35:03.390Z,13.54
2023-04-18T09:36:01.322Z,13.56
2023-04-18T09:37:01.274Z,13.57
2023-04-18T09:38:01.229Z,13.53
2023-04-18T09:39:01.200Z,13.50
2023-04-18T09:40:02.184Z,13.48
2023-04-18T09:41:01.184Z,13.45
2023-04-18T09:42:01.157Z,13.46
2023-04-18T09:43:01.232Z,13.47
2023-04-18T09:44:01.133Z,13.49
2023-04-18T09:45:01.224Z,13.53
2023-04-18T09:46:01.172Z,13.55
2023-04-18T09:47:01.166Z,13.55
2023-04-18T09:48:01.160Z,13.56
2023-04-18T09:49:01.087Z,13.60
2023-04-18T09:50:01.065Z,13.64
2023-04-18T09:51:01.128Z,13.67
2023-04-18T09:52:01.041Z,13.73
2023-04-18T09:53:01.059Z,13.77
2023-04-18T09:54:01.006Z,13.77
2023-04-18T09:55:00.995Z,13.77
2023-04-18T09:56:01.012Z,13.75
2023-04-18T09:57:00.991Z,13.77
2023-04-18T09:58:00.967Z,13.78
2023-04-18T09:59:00.982Z,13.78
2023-04-18T10:00:03.341Z,13.80
2023-04-18T10:01:00.948Z,13.81
2023-04-18T10:02:00.949Z,13.81
2023-04-18T10:03:01.084Z,13.82
2023-04-18T10:04:00.983Z,13.81
2023-04-18T10:05:00.963Z,13.82
2023-04-18T10:06:00.844Z,13.84
2023-04-18T10:07:00.849Z,13.85
2023-04-18T10:08:00.832Z,13.89
2023-04-18T10:09:00.816Z,13.93
2023-04-18T10:10:00.864Z,13.94
2023-04-18T10:11:02.712Z,13.95
2023-04-18T10:12:00.778Z,13.97
2023-04-18T10:13:00.749Z,14.02
2023-04-18T10:14:00.749Z,14.04
2023-04-18T10:15:00.729Z,14.05
2023-04-18T10:16:00.764Z,14.06
2023-04-18T10:17:00.755Z,14.05
2023-04-18T10:18:05.179Z,14.04
2023-04-18T10:19:00.649Z,14.04
2023-04-18T10:20:00.660Z,14.04
2023-04-18T10:21:00.643Z,14.05
2023-04-18T10:22:00.619Z,14.05
2023-04-18T10:23:00.646Z,14.07
2023-04-18T10:24:00.675Z,14.09
2023-04-18T10:25:00.627Z,14.12
2023-04-18T10:26:00.572Z,14.13
2023-04-18T10:27:00.543Z,14.09
2023-04-18T10:28:00.532Z,14.07
2023-04-18T10:29:00.535Z,14.06
2023-04-18T10:30:00.518Z,14.03
2023-04-18T10:31:00.496Z,14.01
2023-04-18T10:32:00.535Z,14.01
2023-04-18T10:33:00.518Z,14.02
2023-04-18T10:35:00.460Z,14.06
2023-04-18T10:36:00.435Z,14.09
2023-04-18T10:37:00.463Z,14.09
2023-04-18T10:38:00.403Z,14.10
2023-04-18T10:39:00.403Z,14.12
2023-04-18T10:40:00.428Z,14.13
2023-04-18T10:41:00.502Z,14.10
2023-04-18T10:42:00.330Z,14.05
2023-04-18T10:43:00.374Z,13.99
2023-04-18T10:44:00.908Z,13.98
2023-04-18T10:45:00.319Z,13.99
2023-04-18T10:46:00.315Z,14.00
2023-04-18T10:47:00.380Z,14.01
2023-04-18T10:48:00.311Z,14.01
2023-04-18T10:49:00.284Z,13.99
2023-04-18T10:50:00.307Z,13.98
2023-04-18T10:51:00.236Z,13.97
2023-04-18T10:52:00.259Z,13.96
2023-04-18T10:53:01.548Z,13.95
2023-04-18T10:54:00.198Z,13.94
2023-04-18T10:55:00.186Z,13.92
2023-04-18T10:56:00.160Z,13.93
2023-04-18T10:57:00.148Z,13.94
2023-04-18T10:58:00.173Z,13.97
2023-04-18T10:59:00.174Z,13.99
2023-04-18T11:00:00.189Z,13.99
2023-04-18T11:01:00.177Z,13.97
2023-04-18T11:02:00.191Z,13.97
2023-04-18T11:03:00.374Z,13.97
2023-04-18T11:04:00.250Z,13.97
2023-04-18T11:05:00.088Z,13.94
2023-04-18T11:06:00.037Z,13.92
2023-04-18T11:07:00.043Z,13.91
2023-04-18T11:07:59.991Z,13.92
2023-04-18T11:09:00.046Z,13.95
2023-04-18T11:10:00.007Z,13.97
2023-04-18T11:10:59.981Z,13.98
2023-04-18T11:11:59.964Z,13.97
2023-04-18T11:13:00.060Z,13.97
2023-04-18T11:13:59.960Z,13.97
2023-04-18T11:14:59.912Z,13.98
2023-04-18T11:15:59.938Z,14.00
2023-04-18T11:17:00.083Z,14.00
2023-04-18T11:17:59.956Z,14.02
2023-04-18T11:18:59.893Z,14.05
2023-04-18T11:19:59.843Z,14.08
2023-04-18T11:20:59.828Z,14.09
2023-04-18T11:21:59.886Z,14.12
2023-04-18T11:22:59.890Z,14.16
2023-04-18T11:23:59.811Z,14.17
2023-04-18T11:24:59.817Z,14.15
2023-04-18T11:25:59.833Z,14.15
2023-04-18T11:26:59.768Z,14.14
2023-04-18T11:27:59.826Z,14.15
2023-04-18T11:28:59.738Z,14.13
2023-04-18T11:29:59.700Z,14.12
2023-04-18T11:30:59.794Z,14.13
2023-04-18T11:31:59.785Z,14.16
2023-04-18T11:32:59.868Z,14.17
2023-04-18T11:33:59.803Z,14.18
2023-04-18T11:34:59.703Z,14.18
2023-04-18T11:35:59.742Z,14.21
2023-04-18T11:36:59.662Z,14.25
2023-04-18T11:37:59.614Z,14.30
2023-04-18T11:38:59.690Z,14.33
2023-04-18T11:39:59.571Z,14.35
2023-04-18T11:40:59.875Z,14.36
2023-04-18T11:41:59.607Z,14.36
2023-04-18T11:42:59.554Z,14.36
2023-04-18T11:43:59.537Z,14.34
2023-04-18T11:44:59.542Z,14.32
2023-04-18T11:45:59.635Z,14.32
2023-04-18T11:46:59.640Z,14.31
2023-04-18T11:47:59.556Z,14.33
2023-04-18T11:48:59.447Z,14.37
2023-04-18T11:49:59.492Z,14.39
2023-04-18T11:50:59.459Z,14.44
2023-04-18T11:51:59.430Z,14.51
2023-04-18T11:52:59.444Z,14.54
2023-04-18T11:53:59.431Z,14.53
2023-04-18T11:54:59.376Z,14.52
2023-04-18T11:55:59.408Z,14.52
2023-04-18T11:56:59.378Z,14.52
2023-04-18T11:57:59.502Z,14.54
2023-04-18T11:58:59.380Z,14.53
2023-04-18T11:59:59.328Z,14.53
2023-04-18T12:00:59.321Z,14.55
2023-04-18T12:01:59.461Z,14.57
2023-04-18T12:02:59.645Z,14.56
2023-04-18T12:03:59.411Z,14.56
2023-04-18T12:04:59.628Z,14.58
2023-04-18T12:05:59.289Z,14.59
2023-04-18T12:06:59.229Z,14.57
2023-04-18T12:07:59.216Z,14.57
2023-04-18T12:08:59.227Z,14.61
2023-04-18T12:09:59.235Z,14.65
2023-04-18T12:10:59.202Z,14.70
2023-04-18T12:11:59.190Z,14.74
2023-04-18T12:12:59.140Z,14.76
2023-04-18T12:13:59.237Z,14.77
2023-04-18T12:14:59.117Z,14.80
2023-04-18T12:15:59.257Z,14.87
2023-04-18T12:16:59.127Z,14.93
2023-04-18T12:17:59.295Z,14.99
2023-04-18T12:18:59.230Z,15.03
2023-04-18T12:19:59.061Z,15.08
2023-04-18T12:20:59.023Z,15.15
2023-04-18T12:21:59.063Z,15.19
2023-04-18T12:22:59.017Z,15.22
2023-04-18T12:23:58.990Z,15.25
2023-04-18T12:24:58.981Z,15.27
2023-04-18T12:25:59.006Z,15.29
2023-04-18T12:26:58.995Z,15.30
2023-04-18T12:27:59.057Z,15.32
2023-04-18T12:28:58.975Z,15.30
2023-04-18T12:29:58.962Z,15.24
2023-04-18T12:30:59.077Z,15.19
2023-04-18T12:31:58.995Z,15.18
2023-04-18T12:32:58.994Z,15.19
2023-04-18T12:33:58.884Z,15.18
2023-04-18T12:34:58.920Z,15.18
2023-04-18T12:35:58.858Z,15.19
2023-04-18T12:36:58.884Z,15.18
2023-04-18T12:37:58.884Z,15.19
2023-04-18T12:38:58.852Z,15.18
2023-04-18T12:39:58.871Z,15.15
2023-04-18T12:40:58.812Z,15.14
2023-04-18T12:41:58.793Z,15.13
2023-04-18T12:42:58.820Z,15.09
2023-04-18T12:43:58.738Z,15.01
2023-04-18T12:44:58.785Z,14.96
2023-04-18T12:45:58.716Z,14.92
2023-04-18T12:46:58.802Z,14.92
2023-04-18T12:47:58.741Z,14.87
2023-04-18T12:48:58.731Z,14.83
2023-04-18T12:49:58.691Z,14.79
2023-04-18T12:50:58.678Z,14.75
2023-04-18T12:51:58.742Z,14.70
2023-04-18T12:52:59.398Z,14.61